sensor_id;sensor_type;location;lat;lon;timestamp;temperature;humidity
18299;DHT22;9275;48.690;9.686;2024-02-21T00:03:45;2.20;99.90
18299;DHT22;9275;48.690;9.686;2024-02-21T00:08:51;2.30;99.90
18299;DHT22;9275;48.690;9.686;2024-02-21T00:13:55;2.40;99.90
18299;DHT22;9275;48.690;9.686;2024-02-21T00:19:00;2.40;99.90
18299;DHT22;9275;48.690;9.686;2024-02-21T00:24:06;2.50;99.90
18299;DHT22;9275;48.690;9.686;2024-02-21T00:29:11;2.50;99.90
18299;DHT22;9275;48.690;9.686;2024-02-21T00:34:16;2.60;99.90
18299;DHT22;9275;48.690;9.686;2024-02-21T00:39:22;2.70;99.90
18299;DHT22;9275;48.690;9.686;2024-02-21T00:44:27;2.70;99.90
18299;DHT22;9275;48.690;9.686;2024-02-21T00:49:31;2.70;99.90
18299;DHT22;9275;48.690;9.686;2024-02-21T00:54:37;2.80;99.90
18299;DHT22;9275;48.690;9.686;2024-02-21T00:59:54;2.80;99.90
18299;DHT22;9275;48.690;9.686;2024-02-21T01:04:59;2.80;99.90
18299;DHT22;9275;48.690;9.686;2024-02-21T01:10:07;2.90;99.90
18299;DHT22;9275;48.690;9.686;2024-02-21T01:15:12;2.90;99.90
18299;DHT22;9275;48.690;9.686;2024-02-21T01:20:17;2.90;99.90
18299;DHT22;9275;48.690;9.686;2024-02-21T01:25:23;2.90;99.90
18299;DHT22;9275;48.690;9.686;2024-02-21T01:30:28;3.00;99.90
18299;DHT22;9275;48.690;9.686;2024-02-21T01:35:32;3.00;99.90
18299;DHT22;9275;48.690;9.686;2024-02-21T01:40:38;3.10;99.90
18299;DHT22;9275;48.690;9.686;2024-02-21T01:45:43;3.10;99.90
18299;DHT22;9275;48.690;9.686;2024-02-21T01:50:49;3.00;99.90
18299;DHT22;9275;48.690;9.686;2024-02-21T01:55:55;3.10;99.90
18299;DHT22;9275;48.690;9.686;2024-02-21T02:01:00;3.10;99.90
18299;DHT22;9275;48.690;9.686;2024-02-21T02:06:06;3.10;99.90
18299;DHT22;9275;48.690;9.686;2024-02-21T02:11:13;3.00;99.90
18299;DHT22;9275;48.690;9.686;2024-02-21T02:16:18;3.10;99.90
18299;DHT22;9275;48.690;9.686;2024-02-21T02:21:27;3.10;99.90
18299;DHT22;9275;48.690;9.686;2024-02-21T02:26:34;3.10;99.90
18299;DHT22;9275;48.690;9.686;2024-02-21T02:31:39;3.20;99.90
18299;DHT22;9275;48.690;9.686;2024-02-21T02:36:44;3.20;99.90
18299;DHT22;9275;48.690;9.686;2024-02-21T02:41:50;3.10;99.90
18299;DHT22;9275;48.690;9.686;2024-02-21T02:46:55;3.20;99.90
18299;DHT22;9275;48.690;9.686;2024-02-21T02:51:59;3.20;99.90
18299;DHT22;9275;48.690;9.686;2024-02-21T02:57:05;3.10;99.90
18299;DHT22;9275;48.690;9.686;2024-02-21T03:02:10;3.10;99.90
18299;DHT22;9275;48.690;9.686;2024-02-21T03:07:15;3.10;99.90
18299;DHT22;9275;48.690;9.686;2024-02-21T03:12:21;3.00;99.90
18299;DHT22;9275;48.690;9.686;2024-02-21T03:17:30;3.00;99.90
18299;DHT22;9275;48.690;9.686;2024-02-21T03:22:37;3.00;99.90
18299;DHT22;9275;48.690;9.686;2024-02-21T03:27:44;3.00;99.90
18299;DHT22;9275;48.690;9.686;2024-02-21T03:32:48;3.00;99.90
18299;DHT22;9275;48.690;9.686;2024-02-21T03:37:53;3.00;99.90
18299;DHT22;9275;48.690;9.686;2024-02-21T03:42:59;2.90;99.90
18299;DHT22;9275;48.690;9.686;2024-02-21T03:48:04;2.70;99.90
18299;DHT22;9275;48.690;9.686;2024-02-21T03:53:09;2.80;99.90
18299;DHT22;9275;48.690;9.686;2024-02-21T03:58:15;2.80;99.90
18299;DHT22;9275;48.690;9.686;2024-02-21T04:03:20;2.80;99.90
18299;DHT22;9275;48.690;9.686;2024-02-21T04:08:24;2.80;99.90
18299;DHT22;9275;48.690;9.686;2024-02-21T04:13:30;2.80;99.90
18299;DHT22;9275;48.690;9.686;2024-02-21T04:18:35;2.60;99.90
18299;DHT22;9275;48.690;9.686;2024-02-21T04:23:39;2.60;99.90
18299;DHT22;9275;48.690;9.686;2024-02-21T04:28:46;2.60;99.90
18299;DHT22;9275;48.690;9.686;2024-02-21T04:33:51;2.60;99.90
18299;DHT22;9275;48.690;9.686;2024-02-21T04:38:56;2.60;99.90
18299;DHT22;9275;48.690;9.686;2024-02-21T04:44:01;2.60;99.90
18299;DHT22;9275;48.690;9.686;2024-02-21T04:49:07;2.60;99.90
18299;DHT22;9275;48.690;9.686;2024-02-21T04:54:11;2.50;99.90
18299;DHT22;9275;48.690;9.686;2024-02-21T04:59:17;2.60;99.90
18299;DHT22;9275;48.690;9.686;2024-02-21T05:04:22;2.60;99.90
18299;DHT22;9275;48.690;9.686;2024-02-21T05:09:27;2.60;99.90
18299;DHT22;9275;48.690;9.686;2024-02-21T05:14:33;2.60;99.90
18299;DHT22;9275;48.690;9.686;2024-02-21T05:19:38;2.50;99.90
18299;DHT22;9275;48.690;9.686;2024-02-21T05:24:42;2.50;99.90
18299;DHT22;9275;48.690;9.686;2024-02-21T05:29:48;2.50;99.90
18299;DHT22;9275;48.690;9.686;2024-02-21T05:34:53;2.50;99.90
18299;DHT22;9275;48.690;9.686;2024-02-21T05:39:58;2.40;99.90
18299;DHT22;9275;48.690;9.686;2024-02-21T05:45:05;2.50;99.90
18299;DHT22;9275;48.690;9.686;2024-02-21T05:50:10;2.50;99.90
18299;DHT22;9275;48.690;9.686;2024-02-21T05:55:15;2.50;99.90
18299;DHT22;9275;48.690;9.686;2024-02-21T06:00:21;2.50;99.90
18299;DHT22;9275;48.690;9.686;2024-02-21T06:05:26;2.40;99.90
18299;DHT22;9275;48.690;9.686;2024-02-21T06:10:31;2.40;99.90
18299;DHT22;9275;48.690;9.686;2024-02-21T06:15:37;2.30;99.90
18299;DHT22;9275;48.690;9.686;2024-02-21T06:20:41;2.40;99.90
18299;DHT22;9275;48.690;9.686;2024-02-21T06:25:46;2.40;99.90
18299;DHT22;9275;48.690;9.686;2024-02-21T06:30:52;2.40;99.90
18299;DHT22;9275;48.690;9.686;2024-02-21T06:35:57;2.40;99.90
18299;DHT22;9275;48.690;9.686;2024-02-21T06:41:01;2.40;99.90
18299;DHT22;9275;48.690;9.686;2024-02-21T06:46:08;2.40;99.90
18299;DHT22;9275;48.690;9.686;2024-02-21T06:51:13;2.40;99.90
18299;DHT22;9275;48.690;9.686;2024-02-21T06:56:17;2.40;99.90
18299;DHT22;9275;48.690;9.686;2024-02-21T07:01:23;2.40;99.90
18299;DHT22;9275;48.690;9.686;2024-02-21T07:06:28;2.40;99.90
18299;DHT22;9275;48.690;9.686;2024-02-21T07:11:37;2.40;99.90
18299;DHT22;9275;48.690;9.686;2024-02-21T07:16:43;2.50;99.90
18299;DHT22;9275;48.690;9.686;2024-02-21T07:21:48;2.40;99.90
18299;DHT22;9275;48.690;9.686;2024-02-21T07:26:53;2.40;99.90
18299;DHT22;9275;48.690;9.686;2024-02-21T07:32:00;2.50;99.90
18299;DHT22;9275;48.690;9.686;2024-02-21T07:37:05;2.40;99.90
18299;DHT22;9275;48.690;9.686;2024-02-21T07:42:10;2.50;99.90
18299;DHT22;9275;48.690;9.686;2024-02-21T07:47:16;2.60;99.90
18299;DHT22;9275;48.690;9.686;2024-02-21T07:52:21;2.60;99.90
18299;DHT22;9275;48.690;9.686;2024-02-21T07:57:28;2.60;99.90
18299;DHT22;9275;48.690;9.686;2024-02-21T08:02:34;2.80;99.90
18299;DHT22;9275;48.690;9.686;2024-02-21T08:07:38;2.90;99.90
18299;DHT22;9275;48.690;9.686;2024-02-21T08:12:43;2.90;99.90
18299;DHT22;9275;48.690;9.686;2024-02-21T08:17:49;3.10;99.90
18299;DHT22;9275;48.690;9.686;2024-02-21T08:22:53;3.10;99.90
18299;DHT22;9275;48.690;9.686;2024-02-21T08:27:59;3.10;99.90
18299;DHT22;9275;48.690;9.686;2024-02-21T08:33:05;3.10;99.90
18299;DHT22;9275;48.690;9.686;2024-02-21T08:38:10;3.20;99.90
18299;DHT22;9275;48.690;9.686;2024-02-21T08:43:14;3.40;99.90
18299;DHT22;9275;48.690;9.686;2024-02-21T08:48:20;3.50;99.90
18299;DHT22;9275;48.690;9.686;2024-02-21T08:53:26;3.60;99.90
18299;DHT22;9275;48.690;9.686;2024-02-21T08:58:30;3.60;99.90
18299;DHT22;9275;48.690;9.686;2024-02-21T09:03:37;3.60;99.90
18299;DHT22;9275;48.690;9.686;2024-02-21T09:08:45;3.50;99.90
18299;DHT22;9275;48.690;9.686;2024-02-21T09:13:50;3.70;99.90
18299;DHT22;9275;48.690;9.686;2024-02-21T09:18:56;3.80;99.90
18299;DHT22;9275;48.690;9.686;2024-02-21T09:24:01;3.90;99.90
18299;DHT22;9275;48.690;9.686;2024-02-21T09:29:06;4.10;99.90
18299;DHT22;9275;48.690;9.686;2024-02-21T09:34:12;4.00;99.90
18299;DHT22;9275;48.690;9.686;2024-02-21T09:39:17;4.00;99.90
18299;DHT22;9275;48.690;9.686;2024-02-21T09:44:22;3.90;99.90
18299;DHT22;9275;48.690;9.686;2024-02-21T09:49:30;3.90;99.90
18299;DHT22;9275;48.690;9.686;2024-02-21T09:54:36;4.00;99.90
18299;DHT22;9275;48.690;9.686;2024-02-21T09:59:40;3.90;99.90
18299;DHT22;9275;48.690;9.686;2024-02-21T10:04:47;3.90;99.90
18299;DHT22;9275;48.690;9.686;2024-02-21T10:10:00;4.00;99.90
18299;DHT22;9275;48.690;9.686;2024-02-21T10:15:06;4.10;99.90
18299;DHT22;9275;48.690;9.686;2024-02-21T10:20:13;3.90;99.90
18299;DHT22;9275;48.690;9.686;2024-02-21T10:25:19;3.80;99.90
18299;DHT22;9275;48.690;9.686;2024-02-21T10:30:25;4.20;99.90
18299;DHT22;9275;48.690;9.686;2024-02-21T10:35:31;4.10;99.90
18299;DHT22;9275;48.690;9.686;2024-02-21T10:40:36;4.20;99.90
18299;DHT22;9275;48.690;9.686;2024-02-21T10:45:41;4.20;99.90
18299;DHT22;9275;48.690;9.686;2024-02-21T10:50:56;4.30;99.90
18299;DHT22;9275;48.690;9.686;2024-02-21T10:56:15;4.10;99.90
18299;DHT22;9275;48.690;9.686;2024-02-21T11:01:21;4.20;99.90
18299;DHT22;9275;48.690;9.686;2024-02-21T11:06:27;4.40;99.90
18299;DHT22;9275;48.690;9.686;2024-02-21T11:11:37;4.30;99.90
18299;DHT22;9275;48.690;9.686;2024-02-21T11:16:43;4.40;99.90
18299;DHT22;9275;48.690;9.686;2024-02-21T11:21:50;4.40;99.90
18299;DHT22;9275;48.690;9.686;2024-02-21T11:26:55;4.40;99.90
18299;DHT22;9275;48.690;9.686;2024-02-21T11:32:03;4.40;99.90
18299;DHT22;9275;48.690;9.686;2024-02-21T11:37:14;4.50;99.90
18299;DHT22;9275;48.690;9.686;2024-02-21T11:42:20;4.50;99.90
18299;DHT22;9275;48.690;9.686;2024-02-21T11:47:27;4.50;99.90
18299;DHT22;9275;48.690;9.686;2024-02-21T11:52:34;4.50;99.90
18299;DHT22;9275;48.690;9.686;2024-02-21T11:57:39;4.50;99.90
18299;DHT22;9275;48.690;9.686;2024-02-21T12:02:46;4.60;99.90
18299;DHT22;9275;48.690;9.686;2024-02-21T12:07:53;4.60;99.90
18299;DHT22;9275;48.690;9.686;2024-02-21T12:13:06;4.70;99.90
18299;DHT22;9275;48.690;9.686;2024-02-21T12:18:11;4.70;99.90
18299;DHT22;9275;48.690;9.686;2024-02-21T12:23:18;4.80;99.90
18299;DHT22;9275;48.690;9.686;2024-02-21T12:28:23;5.10;99.90
18299;DHT22;9275;48.690;9.686;2024-02-21T12:33:28;5.30;99.90
18299;DHT22;9275;48.690;9.686;2024-02-21T12:38:34;5.30;99.90
18299;DHT22;9275;48.690;9.686;2024-02-21T12:43:41;5.30;99.90
18299;DHT22;9275;48.690;9.686;2024-02-21T12:48:46;5.20;99.90
18299;DHT22;9275;48.690;9.686;2024-02-21T12:53:52;5.20;99.90
18299;DHT22;9275;48.690;9.686;2024-02-21T12:58:57;5.20;99.90
18299;DHT22;9275;48.690;9.686;2024-02-21T13:04:02;5.00;99.90
18299;DHT22;9275;48.690;9.686;2024-02-21T13:09:08;5.00;99.90
18299;DHT22;9275;48.690;9.686;2024-02-21T13:14:14;5.10;99.90
18299;DHT22;9275;48.690;9.686;2024-02-21T13:19:19;5.10;99.90
18299;DHT22;9275;48.690;9.686;2024-02-21T13:24:27;5.10;99.90
18299;DHT22;9275;48.690;9.686;2024-02-21T13:29:32;5.10;99.90
18299;DHT22;9275;48.690;9.686;2024-02-21T13:34:37;4.90;99.90
18299;DHT22;9275;48.690;9.686;2024-02-21T13:39:43;4.90;99.90
18299;DHT22;9275;48.690;9.686;2024-02-21T13:44:50;5.00;99.90
18299;DHT22;9275;48.690;9.686;2024-02-21T13:49:54;5.10;99.90
18299;DHT22;9275;48.690;9.686;2024-02-21T13:55:01;5.10;99.90
18299;DHT22;9275;48.690;9.686;2024-02-21T14:00:06;5.10;99.90
18299;DHT22;9275;48.690;9.686;2024-02-21T14:05:13;4.80;99.90
18299;DHT22;9275;48.690;9.686;2024-02-21T14:10:19;4.80;99.90
18299;DHT22;9275;48.690;9.686;2024-02-21T14:15:24;4.90;99.90
18299;DHT22;9275;48.690;9.686;2024-02-21T14:20:29;4.70;99.90
18299;DHT22;9275;48.690;9.686;2024-02-21T14:25:35;4.70;99.90
18299;DHT22;9275;48.690;9.686;2024-02-21T14:30:40;4.60;99.90
18299;DHT22;9275;48.690;9.686;2024-02-21T14:35:44;4.50;99.90
18299;DHT22;9275;48.690;9.686;2024-02-21T14:40:50;4.30;99.90
18299;DHT22;9275;48.690;9.686;2024-02-21T14:45:55;4.40;99.90
18299;DHT22;9275;48.690;9.686;2024-02-21T14:51:00;4.50;99.90
18299;DHT22;9275;48.690;9.686;2024-02-21T14:56:13;4.50;99.90
18299;DHT22;9275;48.690;9.686;2024-02-21T15:01:18;4.20;99.90
18299;DHT22;9275;48.690;9.686;2024-02-21T15:06:23;4.00;99.90
18299;DHT22;9275;48.690;9.686;2024-02-21T15:11:29;4.00;99.90
18299;DHT22;9275;48.690;9.686;2024-02-21T15:16:34;4.00;99.90
18299;DHT22;9275;48.690;9.686;2024-02-21T15:21:39;4.00;99.90
18299;DHT22;9275;48.690;9.686;2024-02-21T15:26:45;4.10;99.90
18299;DHT22;9275;48.690;9.686;2024-02-21T15:31:49;4.10;99.90
18299;DHT22;9275;48.690;9.686;2024-02-21T15:36:54;4.10;99.90
18299;DHT22;9275;48.690;9.686;2024-02-21T15:42:00;3.90;99.90
18299;DHT22;9275;48.690;9.686;2024-02-21T15:47:05;3.50;99.90
18299;DHT22;9275;48.690;9.686;2024-02-21T15:52:10;3.70;99.90
18299;DHT22;9275;48.690;9.686;2024-02-21T15:57:17;3.60;99.90
18299;DHT22;9275;48.690;9.686;2024-02-21T16:02:21;3.60;99.90
18299;DHT22;9275;48.690;9.686;2024-02-21T16:07:27;3.50;99.90
18299;DHT22;9275;48.690;9.686;2024-02-21T16:12:33;3.60;99.90
18299;DHT22;9275;48.690;9.686;2024-02-21T16:17:38;3.60;99.90
18299;DHT22;9275;48.690;9.686;2024-02-21T16:22:43;3.60;99.90
18299;DHT22;9275;48.690;9.686;2024-02-21T16:27:49;3.60;99.90
18299;DHT22;9275;48.690;9.686;2024-02-21T16:32:54;3.50;99.90
18299;DHT22;9275;48.690;9.686;2024-02-21T16:37:58;3.50;99.90
18299;DHT22;9275;48.690;9.686;2024-02-21T16:43:07;3.40;99.90
18299;DHT22;9275;48.690;9.686;2024-02-21T16:48:11;3.50;99.90
18299;DHT22;9275;48.690;9.686;2024-02-21T16:53:16;3.30;99.90
18299;DHT22;9275;48.690;9.686;2024-02-21T16:58:22;3.20;99.90
18299;DHT22;9275;48.690;9.686;2024-02-21T17:03:26;3.20;99.90
18299;DHT22;9275;48.690;9.686;2024-02-21T17:08:31;3.10;99.90
18299;DHT22;9275;48.690;9.686;2024-02-21T17:13:37;3.10;99.90
18299;DHT22;9275;48.690;9.686;2024-02-21T17:18:42;2.90;99.90
18299;DHT22;9275;48.690;9.686;2024-02-21T17:23:48;3.00;99.90
18299;DHT22;9275;48.690;9.686;2024-02-21T17:28:54;2.90;99.90
18299;DHT22;9275;48.690;9.686;2024-02-21T17:33:59;2.90;99.90
18299;DHT22;9275;48.690;9.686;2024-02-21T17:39:04;2.80;99.90
18299;DHT22;9275;48.690;9.686;2024-02-21T17:44:14;2.90;99.90
18299;DHT22;9275;48.690;9.686;2024-02-21T17:49:19;2.80;99.90
18299;DHT22;9275;48.690;9.686;2024-02-21T17:54:24;2.80;99.90
18299;DHT22;9275;48.690;9.686;2024-02-21T17:59:30;2.80;99.90
18299;DHT22;9275;48.690;9.686;2024-02-21T18:04:35;2.80;99.90
18299;DHT22;9275;48.690;9.686;2024-02-21T18:09:39;2.70;99.90
18299;DHT22;9275;48.690;9.686;2024-02-21T18:14:45;2.70;99.90
18299;DHT22;9275;48.690;9.686;2024-02-21T18:19:50;2.60;99.90
18299;DHT22;9275;48.690;9.686;2024-02-21T18:24:55;2.50;99.90
18299;DHT22;9275;48.690;9.686;2024-02-21T18:30:01;2.40;99.90
18299;DHT22;9275;48.690;9.686;2024-02-21T18:35:07;2.40;99.90
18299;DHT22;9275;48.690;9.686;2024-02-21T18:40:12;2.40;99.90
18299;DHT22;9275;48.690;9.686;2024-02-21T18:45:20;2.40;99.90
18299;DHT22;9275;48.690;9.686;2024-02-21T18:50:25;2.40;99.90
18299;DHT22;9275;48.690;9.686;2024-02-21T18:55:30;2.20;99.90
18299;DHT22;9275;48.690;9.686;2024-02-21T19:00:36;2.00;99.90
18299;DHT22;9275;48.690;9.686;2024-02-21T19:05:40;2.20;99.90
18299;DHT22;9275;48.690;9.686;2024-02-21T19:10:45;2.10;99.90
18299;DHT22;9275;48.690;9.686;2024-02-21T19:15:51;2.20;99.90
18299;DHT22;9275;48.690;9.686;2024-02-21T19:20:56;2.00;99.90
18299;DHT22;9275;48.690;9.686;2024-02-21T19:26:01;2.10;99.90
18299;DHT22;9275;48.690;9.686;2024-02-21T19:31:07;2.20;99.90
18299;DHT22;9275;48.690;9.686;2024-02-21T19:36:12;2.10;99.90
18299;DHT22;9275;48.690;9.686;2024-02-21T19:41:16;2.10;99.90
18299;DHT22;9275;48.690;9.686;2024-02-21T19:46:23;2.20;99.90
18299;DHT22;9275;48.690;9.686;2024-02-21T19:51:28;1.90;99.90
18299;DHT22;9275;48.690;9.686;2024-02-21T19:56:32;1.90;99.90
18299;DHT22;9275;48.690;9.686;2024-02-21T20:01:38;1.70;99.90
18299;DHT22;9275;48.690;9.686;2024-02-21T20:06:43;1.70;99.90
18299;DHT22;9275;48.690;9.686;2024-02-21T20:11:48;1.80;99.90
18299;DHT22;9275;48.690;9.686;2024-02-21T20:16:54;1.80;99.90
18299;DHT22;9275;48.690;9.686;2024-02-21T20:21:59;1.70;99.90
18299;DHT22;9275;48.690;9.686;2024-02-21T20:27:04;1.70;99.90
18299;DHT22;9275;48.690;9.686;2024-02-21T20:32:10;1.80;99.90
18299;DHT22;9275;48.690;9.686;2024-02-21T20:37:15;1.70;99.90
18299;DHT22;9275;48.690;9.686;2024-02-21T20:42:19;1.70;99.90
18299;DHT22;9275;48.690;9.686;2024-02-21T20:47:28;1.60;99.90
18299;DHT22;9275;48.690;9.686;2024-02-21T20:52:33;1.60;99.90
18299;DHT22;9275;48.690;9.686;2024-02-21T20:57:38;1.40;99.90
18299;DHT22;9275;48.690;9.686;2024-02-21T21:02:44;1.40;99.90
18299;DHT22;9275;48.690;9.686;2024-02-21T21:07:50;1.50;99.90
18299;DHT22;9275;48.690;9.686;2024-02-21T21:12:54;1.40;99.90
18299;DHT22;9275;48.690;9.686;2024-02-21T21:18:01;1.60;99.90
18299;DHT22;9275;48.690;9.686;2024-02-21T21:23:06;1.60;99.90
18299;DHT22;9275;48.690;9.686;2024-02-21T21:28:10;1.40;99.90
18299;DHT22;9275;48.690;9.686;2024-02-21T21:33:18;1.50;99.90
18299;DHT22;9275;48.690;9.686;2024-02-21T21:38:22;1.40;99.90
18299;DHT22;9275;48.690;9.686;2024-02-21T21:43:27;1.40;99.90
18299;DHT22;9275;48.690;9.686;2024-02-21T21:48:33;1.50;99.90
18299;DHT22;9275;48.690;9.686;2024-02-21T21:53:38;1.50;99.90
18299;DHT22;9275;48.690;9.686;2024-02-21T21:58:42;1.50;99.90
18299;DHT22;9275;48.690;9.686;2024-02-21T22:03:50;1.60;99.90
18299;DHT22;9275;48.690;9.686;2024-02-21T22:08:55;1.60;99.90
18299;DHT22;9275;48.690;9.686;2024-02-21T22:14:00;1.40;99.90
18299;DHT22;9275;48.690;9.686;2024-02-21T22:19:06;1.50;99.90
18299;DHT22;9275;48.690;9.686;2024-02-21T22:24:11;1.60;99.90
18299;DHT22;9275;48.690;9.686;2024-02-21T22:29:15;1.40;99.90
18299;DHT22;9275;48.690;9.686;2024-02-21T22:34:22;1.30;99.90
18299;DHT22;9275;48.690;9.686;2024-02-21T22:39:26;1.30;99.90
18299;DHT22;9275;48.690;9.686;2024-02-21T22:44:31;1.40;99.90
18299;DHT22;9275;48.690;9.686;2024-02-21T22:49:37;1.50;99.90
18299;DHT22;9275;48.690;9.686;2024-02-21T22:54:41;1.60;99.90
18299;DHT22;9275;48.690;9.686;2024-02-21T22:59:46;1.50;99.90
18299;DHT22;9275;48.690;9.686;2024-02-21T23:04:53;1.40;99.90
18299;DHT22;9275;48.690;9.686;2024-02-21T23:09:58;1.30;99.90
18299;DHT22;9275;48.690;9.686;2024-02-21T23:15:03;1.20;99.90
18299;DHT22;9275;48.690;9.686;2024-02-21T23:20:11;1.40;99.90
18299;DHT22;9275;48.690;9.686;2024-02-21T23:25:15;1.40;99.90
18299;DHT22;9275;48.690;9.686;2024-02-21T23:30:22;1.40;99.90
18299;DHT22;9275;48.690;9.686;2024-02-21T23:35:28;1.40;99.90
18299;DHT22;9275;48.690;9.686;2024-02-21T23:40:32;1.40;99.90
18299;DHT22;9275;48.690;9.686;2024-02-21T23:45:37;1.50;99.90
18299;DHT22;9275;48.690;9.686;2024-02-21T23:50:43;1.50;99.90
18299;DHT22;9275;48.690;9.686;2024-02-21T23:55:47;1.50;99.90
